sensor_id;sensor_type;location;lat;lon;timestamp;P1;durP1;ratioP1;P2;durP2;ratioP2
41653;SDS011;30790;52.030;7.110;2022-10-16T00:01:29;22.60;;;7.03;;
41653;SDS011;30790;52.030;7.110;2022-10-16T00:03:56;20.55;;;7.22;;
41653;SDS011;30790;52.030;7.110;2022-10-16T00:06:23;27.50;;;7.47;;
41653;SDS011;30790;52.030;7.110;2022-10-16T00:08:49;25.63;;;7.38;;
41653;SDS011;30790;52.030;7.110;2022-10-16T00:11:20;23.80;;;7.03;;
41653;SDS011;30790;52.030;7.110;2022-10-16T00:13:48;20.98;;;6.78;;
41653;SDS011;30790;52.030;7.110;2022-10-16T00:16:15;19.10;;;6.47;;
41653;SDS011;30790;52.030;7.110;2022-10-16T00:18:40;26.55;;;6.53;;
41653;SDS011;30790;52.030;7.110;2022-10-16T00:21:10;19.88;;;5.78;;
41653;SDS011;30790;52.030;7.110;2022-10-16T00:23:37;21.73;;;6.82;;
41653;SDS011;30790;52.030;7.110;2022-10-16T00:26:05;24.25;;;6.80;;
41653;SDS011;30790;52.030;7.110;2022-10-16T00:28:32;19.42;;;6.53;;
41653;SDS011;30790;52.030;7.110;2022-10-16T00:30:57;21.38;;;6.82;;
41653;SDS011;30790;52.030;7.110;2022-10-16T00:33:23;18.88;;;6.97;;
41653;SDS011;30790;52.030;7.110;2022-10-16T00:35:49;16.85;;;7.10;;
41653;SDS011;30790;52.030;7.110;2022-10-16T00:38:15;16.83;;;6.32;;
41653;SDS011;30790;52.030;7.110;2022-10-16T00:40:40;17.25;;;6.93;;
41653;SDS011;30790;52.030;7.110;2022-10-16T00:43:11;18.80;;;6.32;;
41653;SDS011;30790;52.030;7.110;2022-10-16T00:45:39;19.30;;;6.22;;
41653;SDS011;30790;52.030;7.110;2022-10-16T00:48:06;16.70;;;6.03;;
41653;SDS011;30790;52.030;7.110;2022-10-16T00:50:38;19.20;;;6.60;;
41653;SDS011;30790;52.030;7.110;2022-10-16T00:53:06;18.85;;;5.70;;
41653;SDS011;30790;52.030;7.110;2022-10-16T00:55:31;19.77;;;6.68;;
41653;SDS011;30790;52.030;7.110;2022-10-16T00:57:57;15.43;;;6.38;;
41653;SDS011;30790;52.030;7.110;2022-10-16T01:00:23;17.42;;;5.65;;
41653;SDS011;30790;52.030;7.110;2022-10-16T01:02:55;22.08;;;6.60;;
41653;SDS011;30790;52.030;7.110;2022-10-16T01:05:43;14.60;;;5.53;;
41653;SDS011;30790;52.030;7.110;2022-10-16T01:08:27;22.70;;;6.70;;
41653;SDS011;30790;52.030;7.110;2022-10-16T01:11:05;18.40;;;6.20;;
41653;SDS011;30790;52.030;7.110;2022-10-16T01:13:41;15.35;;;5.78;;
41653;SDS011;30790;52.030;7.110;2022-10-16T01:16:46;18.75;;;6.25;;
41653;SDS011;30790;52.030;7.110;2022-10-16T01:19:21;19.08;;;5.60;;
41653;SDS011;30790;52.030;7.110;2022-10-16T01:21:59;20.85;;;6.20;;
41653;SDS011;30790;52.030;7.110;2022-10-16T01:24:43;15.55;;;6.38;;
41653;SDS011;30790;52.030;7.110;2022-10-16T01:27:12;17.75;;;5.95;;
41653;SDS011;30790;52.030;7.110;2022-10-16T01:29:42;19.75;;;6.47;;
41653;SDS011;30790;52.030;7.110;2022-10-16T01:37:40;22.08;;;7.07;;
41653;SDS011;30790;52.030;7.110;2022-10-16T01:40:12;14.20;;;5.80;;
41653;SDS011;30790;52.030;7.110;2022-10-16T01:42:42;14.25;;;5.82;;
41653;SDS011;30790;52.030;7.110;2022-10-16T01:45:11;13.93;;;5.70;;
41653;SDS011;30790;52.030;7.110;2022-10-16T01:47:38;20.92;;;6.10;;
41653;SDS011;30790;52.030;7.110;2022-10-16T01:50:05;16.25;;;6.03;;
41653;SDS011;30790;52.030;7.110;2022-10-16T01:52:34;11.85;;;5.47;;
41653;SDS011;30790;52.030;7.110;2022-10-16T01:55:03;19.40;;;6.03;;
41653;SDS011;30790;52.030;7.110;2022-10-16T01:57:34;14.57;;;5.47;;
41653;SDS011;30790;52.030;7.110;2022-10-16T02:00:05;16.33;;;6.13;;
41653;SDS011;30790;52.030;7.110;2022-10-16T02:02:33;12.85;;;5.30;;
41653;SDS011;30790;52.030;7.110;2022-10-16T02:05:02;13.98;;;5.45;;
41653;SDS011;30790;52.030;7.110;2022-10-16T02:07:33;13.35;;;5.25;;
41653;SDS011;30790;52.030;7.110;2022-10-16T02:09:59;14.20;;;5.00;;
41653;SDS011;30790;52.030;7.110;2022-10-16T02:12:30;11.15;;;4.95;;
41653;SDS011;30790;52.030;7.110;2022-10-16T02:14:57;12.82;;;4.63;;
41653;SDS011;30790;52.030;7.110;2022-10-16T02:17:23;11.63;;;5.00;;
41653;SDS011;30790;52.030;7.110;2022-10-16T02:19:50;11.70;;;4.63;;
41653;SDS011;30790;52.030;7.110;2022-10-16T02:22:21;12.07;;;5.57;;
41653;SDS011;30790;52.030;7.110;2022-10-16T02:25:06;13.80;;;5.00;;
41653;SDS011;30790;52.030;7.110;2022-10-16T02:27:38;16.63;;;5.05;;
41653;SDS011;30790;52.030;7.110;2022-10-16T02:30:13;13.10;;;5.43;;
41653;SDS011;30790;52.030;7.110;2022-10-16T02:32:45;13.70;;;5.38;;
41653;SDS011;30790;52.030;7.110;2022-10-16T02:35:13;15.32;;;5.75;;
41653;SDS011;30790;52.030;7.110;2022-10-16T02:37:39;13.60;;;5.20;;
41653;SDS011;30790;52.030;7.110;2022-10-16T02:40:06;19.05;;;6.68;;
41653;SDS011;30790;52.030;7.110;2022-10-16T02:42:36;12.75;;;4.90;;
41653;SDS011;30790;52.030;7.110;2022-10-16T02:45:04;13.35;;;5.47;;
41653;SDS011;30790;52.030;7.110;2022-10-16T02:47:30;13.25;;;5.10;;
41653;SDS011;30790;52.030;7.110;2022-10-16T02:49:55;11.35;;;4.97;;
41653;SDS011;30790;52.030;7.110;2022-10-16T02:52:20;16.70;;;5.15;;
41653;SDS011;30790;52.030;7.110;2022-10-16T02:54:46;11.57;;;5.25;;
41653;SDS011;30790;52.030;7.110;2022-10-16T02:57:11;12.95;;;5.13;;
41653;SDS011;30790;52.030;7.110;2022-10-16T02:59:37;13.05;;;4.95;;
41653;SDS011;30790;52.030;7.110;2022-10-16T03:02:02;12.32;;;4.85;;
41653;SDS011;30790;52.030;7.110;2022-10-16T03:04:28;10.52;;;4.70;;
41653;SDS011;30790;52.030;7.110;2022-10-16T03:06:53;11.05;;;4.97;;
41653;SDS011;30790;52.030;7.110;2022-10-16T03:09:18;11.02;;;4.50;;
41653;SDS011;30790;52.030;7.110;2022-10-16T03:11:43;12.27;;;5.13;;
41653;SDS011;30790;52.030;7.110;2022-10-16T03:14:09;13.68;;;4.47;;
41653;SDS011;30790;52.030;7.110;2022-10-16T03:16:34;12.67;;;4.27;;
41653;SDS011;30790;52.030;7.110;2022-10-16T03:18:59;13.98;;;5.43;;
41653;SDS011;30790;52.030;7.110;2022-10-16T03:21:25;12.85;;;4.20;;
41653;SDS011;30790;52.030;7.110;2022-10-16T03:23:50;12.18;;;4.88;;
41653;SDS011;30790;52.030;7.110;2022-10-16T03:26:15;9.52;;;5.03;;
41653;SDS011;30790;52.030;7.110;2022-10-16T03:28:40;10.18;;;4.45;;
41653;SDS011;30790;52.030;7.110;2022-10-16T03:31:06;15.07;;;5.57;;
41653;SDS011;30790;52.030;7.110;2022-10-16T03:33:31;14.90;;;4.90;;
41653;SDS011;30790;52.030;7.110;2022-10-16T03:35:56;12.57;;;5.03;;
41653;SDS011;30790;52.030;7.110;2022-10-16T03:38:22;13.73;;;4.55;;
41653;SDS011;30790;52.030;7.110;2022-10-16T03:40:47;13.50;;;4.65;;
41653;SDS011;30790;52.030;7.110;2022-10-16T03:43:12;14.30;;;4.97;;
41653;SDS011;30790;52.030;7.110;2022-10-16T03:45:38;14.18;;;4.60;;
41653;SDS011;30790;52.030;7.110;2022-10-16T03:48:03;10.73;;;4.18;;
41653;SDS011;30790;52.030;7.110;2022-10-16T03:50:28;11.98;;;4.45;;
41653;SDS011;30790;52.030;7.110;2022-10-16T03:52:54;14.38;;;4.35;;
41653;SDS011;30790;52.030;7.110;2022-10-16T03:55:19;14.23;;;4.85;;
41653;SDS011;30790;52.030;7.110;2022-10-16T03:57:45;10.93;;;4.20;;
41653;SDS011;30790;52.030;7.110;2022-10-16T04:00:10;9.82;;;4.22;;
41653;SDS011;30790;52.030;7.110;2022-10-16T04:02:36;10.13;;;4.00;;
41653;SDS011;30790;52.030;7.110;2022-10-16T04:05:02;10.82;;;4.40;;
41653;SDS011;30790;52.030;7.110;2022-10-16T04:07:27;11.23;;;5.30;;
41653;SDS011;30790;52.030;7.110;2022-10-16T04:09:53;10.38;;;4.40;;
41653;SDS011;30790;52.030;7.110;2022-10-16T04:12:18;14.77;;;4.97;;
41653;SDS011;30790;52.030;7.110;2022-10-16T04:14:44;11.10;;;4.13;;
41653;SDS011;30790;52.030;7.110;2022-10-16T04:17:09;13.43;;;5.13;;
41653;SDS011;30790;52.030;7.110;2022-10-16T04:19:34;10.30;;;4.05;;
41653;SDS011;30790;52.030;7.110;2022-10-16T04:21:59;8.30;;;4.18;;
41653;SDS011;30790;52.030;7.110;2022-10-16T04:24:25;10.25;;;4.18;;
41653;SDS011;30790;52.030;7.110;2022-10-16T04:26:50;11.20;;;4.23;;
41653;SDS011;30790;52.030;7.110;2022-10-16T04:29:15;9.35;;;3.83;;
41653;SDS011;30790;52.030;7.110;2022-10-16T04:31:40;12.60;;;4.15;;
41653;SDS011;30790;52.030;7.110;2022-10-16T04:34:06;9.45;;;3.75;;
41653;SDS011;30790;52.030;7.110;2022-10-16T04:36:31;11.02;;;4.18;;
41653;SDS011;30790;52.030;7.110;2022-10-16T04:38:56;10.25;;;4.25;;
41653;SDS011;30790;52.030;7.110;2022-10-16T04:41:21;9.57;;;4.10;;
41653;SDS011;30790;52.030;7.110;2022-10-16T04:43:47;9.77;;;3.95;;
41653;SDS011;30790;52.030;7.110;2022-10-16T04:46:12;8.57;;;3.65;;
41653;SDS011;30790;52.030;7.110;2022-10-16T04:48:37;8.55;;;4.05;;
41653;SDS011;30790;52.030;7.110;2022-10-16T04:51:03;10.13;;;3.80;;
41653;SDS011;30790;52.030;7.110;2022-10-16T04:53:28;13.20;;;4.38;;
41653;SDS011;30790;52.030;7.110;2022-10-16T04:55:54;9.40;;;3.53;;
41653;SDS011;30790;52.030;7.110;2022-10-16T04:58:19;11.75;;;4.32;;
41653;SDS011;30790;52.030;7.110;2022-10-16T05:00:44;9.00;;;3.90;;
41653;SDS011;30790;52.030;7.110;2022-10-16T05:03:11;8.52;;;4.22;;
41653;SDS011;30790;52.030;7.110;2022-10-16T05:05:36;12.55;;;4.30;;
41653;SDS011;30790;52.030;7.110;2022-10-16T05:08:08;12.93;;;4.38;;
41653;SDS011;30790;52.030;7.110;2022-10-16T05:10:33;9.25;;;4.05;;
41653;SDS011;30790;52.030;7.110;2022-10-16T05:12:58;10.70;;;3.63;;
41653;SDS011;30790;52.030;7.110;2022-10-16T05:15:24;11.00;;;4.00;;
41653;SDS011;30790;52.030;7.110;2022-10-16T05:17:51;8.30;;;3.47;;
41653;SDS011;30790;52.030;7.110;2022-10-16T05:20:18;7.63;;;3.70;;
41653;SDS011;30790;52.030;7.110;2022-10-16T05:22:43;10.50;;;3.58;;
41653;SDS011;30790;52.030;7.110;2022-10-16T05:25:08;10.05;;;4.13;;
41653;SDS011;30790;52.030;7.110;2022-10-16T05:27:33;9.63;;;3.25;;
41653;SDS011;30790;52.030;7.110;2022-10-16T05:29:59;10.63;;;4.20;;
41653;SDS011;30790;52.030;7.110;2022-10-16T05:32:24;10.50;;;4.00;;
41653;SDS011;30790;52.030;7.110;2022-10-16T05:34:50;6.20;;;3.35;;
41653;SDS011;30790;52.030;7.110;2022-10-16T05:37:15;10.02;;;3.47;;
41653;SDS011;30790;52.030;7.110;2022-10-16T05:39:41;9.32;;;3.63;;
41653;SDS011;30790;52.030;7.110;2022-10-16T05:42:06;9.95;;;3.50;;
41653;SDS011;30790;52.030;7.110;2022-10-16T05:44:32;16.70;;;3.75;;
41653;SDS011;30790;52.030;7.110;2022-10-16T05:46:57;19.00;;;3.92;;
41653;SDS011;30790;52.030;7.110;2022-10-16T05:49:23;18.55;;;4.00;;
41653;SDS011;30790;52.030;7.110;2022-10-16T05:51:48;9.90;;;3.33;;
41653;SDS011;30790;52.030;7.110;2022-10-16T05:54:13;14.07;;;4.30;;
41653;SDS011;30790;52.030;7.110;2022-10-16T05:56:39;11.45;;;3.60;;
41653;SDS011;30790;52.030;7.110;2022-10-16T05:59:04;22.15;;;4.18;;
41653;SDS011;30790;52.030;7.110;2022-10-16T06:01:30;11.30;;;2.40;;
41653;SDS011;30790;52.030;7.110;2022-10-16T06:03:57;8.32;;;2.50;;
41653;SDS011;30790;52.030;7.110;2022-10-16T06:06:24;9.20;;;2.35;;
41653;SDS011;30790;52.030;7.110;2022-10-16T06:08:52;7.72;;;2.28;;
41653;SDS011;30790;52.030;7.110;2022-10-16T06:11:22;10.70;;;1.90;;
41653;SDS011;30790;52.030;7.110;2022-10-16T06:13:52;11.80;;;2.45;;
41653;SDS011;30790;52.030;7.110;2022-10-16T06:16:18;8.88;;;2.10;;
41653;SDS011;30790;52.030;7.110;2022-10-16T06:18:44;13.00;;;3.20;;
41653;SDS011;30790;52.030;7.110;2022-10-16T06:21:16;6.88;;;2.17;;
41653;SDS011;30790;52.030;7.110;2022-10-16T06:23:43;13.55;;;2.65;;
41653;SDS011;30790;52.030;7.110;2022-10-16T06:26:09;27.77;;;2.78;;
41653;SDS011;30790;52.030;7.110;2022-10-16T06:28:36;11.10;;;2.65;;
41653;SDS011;30790;52.030;7.110;2022-10-16T06:31:03;18.25;;;3.08;;
41653;SDS011;30790;52.030;7.110;2022-10-16T06:33:30;14.90;;;2.22;;
41653;SDS011;30790;52.030;7.110;2022-10-16T06:36:02;22.75;;;3.13;;
41653;SDS011;30790;52.030;7.110;2022-10-16T06:38:28;25.83;;;3.20;;
41653;SDS011;30790;52.030;7.110;2022-10-16T06:40:54;23.08;;;3.15;;
41653;SDS011;30790;52.030;7.110;2022-10-16T06:43:19;21.10;;;3.08;;
41653;SDS011;30790;52.030;7.110;2022-10-16T06:45:50;23.10;;;3.28;;
41653;SDS011;30790;52.030;7.110;2022-10-16T06:48:16;16.83;;;3.47;;
41653;SDS011;30790;52.030;7.110;2022-10-16T06:50:41;27.42;;;3.15;;
41653;SDS011;30790;52.030;7.110;2022-10-16T06:53:07;33.23;;;3.67;;
41653;SDS011;30790;52.030;7.110;2022-10-16T06:55:32;26.73;;;3.43;;
41653;SDS011;30790;52.030;7.110;2022-10-16T06:57:57;28.03;;;3.47;;
41653;SDS011;30790;52.030;7.110;2022-10-16T07:00:28;16.60;;;2.45;;
41653;SDS011;30790;52.030;7.110;2022-10-16T07:02:54;32.63;;;3.65;;
41653;SDS011;30790;52.030;7.110;2022-10-16T07:05:19;31.73;;;3.63;;
41653;SDS011;30790;52.030;7.110;2022-10-16T07:07:44;43.33;;;4.05;;
41653;SDS011;30790;52.030;7.110;2022-10-16T07:10:09;33.97;;;4.00;;
41653;SDS011;30790;52.030;7.110;2022-10-16T07:12:35;24.15;;;2.95;;
41653;SDS011;30790;52.030;7.110;2022-10-16T07:15:00;16.70;;;3.00;;
41653;SDS011;30790;52.030;7.110;2022-10-16T07:17:25;24.03;;;3.23;;
41653;SDS011;30790;52.030;7.110;2022-10-16T07:19:50;16.15;;;3.30;;
41653;SDS011;30790;52.030;7.110;2022-10-16T07:22:18;31.35;;;3.50;;
41653;SDS011;30790;52.030;7.110;2022-10-16T07:24:43;33.22;;;3.50;;
41653;SDS011;30790;52.030;7.110;2022-10-16T07:27:09;29.10;;;3.97;;
41653;SDS011;30790;52.030;7.110;2022-10-16T07:29:34;22.98;;;4.10;;
41653;SDS011;30790;52.030;7.110;2022-10-16T07:31:59;23.23;;;3.75;;
41653;SDS011;30790;52.030;7.110;2022-10-16T07:34:26;34.78;;;4.57;;
41653;SDS011;30790;52.030;7.110;2022-10-16T07:36:52;29.55;;;4.10;;
41653;SDS011;30790;52.030;7.110;2022-10-16T07:39:17;34.65;;;3.45;;
41653;SDS011;30790;52.030;7.110;2022-10-16T07:41:43;23.33;;;3.42;;
41653;SDS011;30790;52.030;7.110;2022-10-16T07:44:08;20.25;;;2.97;;
41653;SDS011;30790;52.030;7.110;2022-10-16T07:46:34;24.48;;;3.35;;
41653;SDS011;30790;52.030;7.110;2022-10-16T07:49:00;18.40;;;2.85;;
41653;SDS011;30790;52.030;7.110;2022-10-16T07:51:26;25.25;;;3.50;;
41653;SDS011;30790;52.030;7.110;2022-10-16T07:53:52;25.52;;;3.13;;
41653;SDS011;30790;52.030;7.110;2022-10-16T07:56:19;20.98;;;2.58;;
41653;SDS011;30790;52.030;7.110;2022-10-16T07:58:45;16.20;;;3.05;;
41653;SDS011;30790;52.030;7.110;2022-10-16T08:01:11;24.92;;;2.83;;
41653;SDS011;30790;52.030;7.110;2022-10-16T08:03:41;13.18;;;2.88;;
41653;SDS011;30790;52.030;7.110;2022-10-16T08:06:07;20.92;;;3.15;;
41653;SDS011;30790;52.030;7.110;2022-10-16T08:08:33;17.17;;;2.97;;
41653;SDS011;30790;52.030;7.110;2022-10-16T08:10:58;13.57;;;2.35;;
41653;SDS011;30790;52.030;7.110;2022-10-16T08:13:25;8.35;;;1.88;;
41653;SDS011;30790;52.030;7.110;2022-10-16T08:15:51;19.63;;;2.70;;
41653;SDS011;30790;52.030;7.110;2022-10-16T08:18:16;14.07;;;3.25;;
41653;SDS011;30790;52.030;7.110;2022-10-16T08:20:42;23.67;;;2.97;;
41653;SDS011;30790;52.030;7.110;2022-10-16T08:23:09;26.13;;;3.20;;
41653;SDS011;30790;52.030;7.110;2022-10-16T08:25:36;19.75;;;2.97;;
41653;SDS011;30790;52.030;7.110;2022-10-16T08:28:05;20.55;;;3.78;;
41653;SDS011;30790;52.030;7.110;2022-10-16T08:30:32;23.30;;;4.13;;
41653;SDS011;30790;52.030;7.110;2022-10-16T08:32:57;26.25;;;3.83;;
41653;SDS011;30790;52.030;7.110;2022-10-16T08:35:23;19.23;;;3.40;;
41653;SDS011;30790;52.030;7.110;2022-10-16T08:37:48;19.35;;;3.15;;
41653;SDS011;30790;52.030;7.110;2022-10-16T08:40:22;13.30;;;2.72;;
41653;SDS011;30790;52.030;7.110;2022-10-16T08:45:34;27.52;;;3.13;;
41653;SDS011;30790;52.030;7.110;2022-10-16T08:48:13;13.68;;;2.63;;
41653;SDS011;30790;52.030;7.110;2022-10-16T08:50:42;28.17;;;3.15;;
41653;SDS011;30790;52.030;7.110;2022-10-16T08:53:10;11.75;;;2.30;;
41653;SDS011;30790;52.030;7.110;2022-10-16T08:55:43;6.50;;;2.43;;
41653;SDS011;30790;52.030;7.110;2022-10-16T08:58:12;21.13;;;2.95;;
41653;SDS011;30790;52.030;7.110;2022-10-16T09:00:39;9.52;;;2.20;;
41653;SDS011;30790;52.030;7.110;2022-10-16T09:03:17;14.52;;;2.35;;
41653;SDS011;30790;52.030;7.110;2022-10-16T09:08:46;26.98;;;3.33;;
41653;SDS011;30790;52.030;7.110;2022-10-16T09:11:20;35.87;;;4.70;;
41653;SDS011;30790;52.030;7.110;2022-10-16T09:19:51;36.13;;;4.63;;
41653;SDS011;30790;52.030;7.110;2022-10-16T09:22:26;27.70;;;4.07;;
41653;SDS011;30790;52.030;7.110;2022-10-16T09:24:54;21.90;;;3.80;;
41653;SDS011;30790;52.030;7.110;2022-10-16T09:27:24;27.52;;;4.75;;
41653;SDS011;30790;52.030;7.110;2022-10-16T09:29:49;26.75;;;3.60;;
41653;SDS011;30790;52.030;7.110;2022-10-16T09:32:18;29.20;;;3.35;;
41653;SDS011;30790;52.030;7.110;2022-10-16T09:34:47;41.67;;;4.88;;
41653;SDS011;30790;52.030;7.110;2022-10-16T09:37:17;24.23;;;4.00;;
41653;SDS011;30790;52.030;7.110;2022-10-16T09:39:49;66.88;;;5.70;;
41653;SDS011;30790;52.030;7.110;2022-10-16T09:42:19;44.97;;;4.65;;
41653;SDS011;30790;52.030;7.110;2022-10-16T09:44:48;40.45;;;4.60;;
41653;SDS011;30790;52.030;7.110;2022-10-16T09:47:16;34.47;;;5.22;;
41653;SDS011;30790;52.030;7.110;2022-10-16T09:50:19;44.05;;;5.57;;
41653;SDS011;30790;52.030;7.110;2022-10-16T09:52:46;35.03;;;5.28;;
41653;SDS011;30790;52.030;7.110;2022-10-16T09:55:12;33.55;;;5.22;;
41653;SDS011;30790;52.030;7.110;2022-10-16T09:57:50;24.27;;;5.15;;
41653;SDS011;30790;52.030;7.110;2022-10-16T10:00:19;32.47;;;5.45;;
41653;SDS011;30790;52.030;7.110;2022-10-16T10:02:45;29.85;;;5.57;;
41653;SDS011;30790;52.030;7.110;2022-10-16T10:05:47;29.08;;;5.07;;
41653;SDS011;30790;52.030;7.110;2022-10-16T10:08:04;21.00;;;5.35;;
41653;SDS011;30790;52.030;7.110;2022-10-16T10:10:32;30.45;;;5.47;;
41653;SDS011;30790;52.030;7.110;2022-10-16T10:12:59;28.25;;;5.30;;
41653;SDS011;30790;52.030;7.110;2022-10-16T10:15:25;30.77;;;5.95;;
41653;SDS011;30790;52.030;7.110;2022-10-16T10:17:58;24.85;;;5.20;;
41653;SDS011;30790;52.030;7.110;2022-10-16T10:22:52;30.67;;;5.15;;
41653;SDS011;30790;52.030;7.110;2022-10-16T10:25:32;27.58;;;5.97;;
41653;SDS011;30790;52.030;7.110;2022-10-16T10:31:27;33.13;;;5.72;;
41653;SDS011;30790;52.030;7.110;2022-10-16T10:36:39;26.95;;;5.00;;
41653;SDS011;30790;52.030;7.110;2022-10-16T10:42:04;36.50;;;5.63;;
41653;SDS011;30790;52.030;7.110;2022-10-16T10:56:39;22.13;;;5.07;;
41653;SDS011;30790;52.030;7.110;2022-10-16T11:02:21;28.63;;;4.93;;
41653;SDS011;30790;52.030;7.110;2022-10-16T11:07:33;27.65;;;5.30;;
41653;SDS011;30790;52.030;7.110;2022-10-16T11:10:04;25.40;;;4.32;;
41653;SDS011;30790;52.030;7.110;2022-10-16T11:12:39;31.45;;;4.05;;
41653;SDS011;30790;52.030;7.110;2022-10-16T11:15:13;21.08;;;4.18;;
41653;SDS011;30790;52.030;7.110;2022-10-16T11:17:42;19.92;;;3.95;;
41653;SDS011;30790;52.030;7.110;2022-10-16T11:20:17;44.22;;;4.30;;
41653;SDS011;30790;52.030;7.110;2022-10-16T11:22:53;31.23;;;4.88;;
41653;SDS011;30790;52.030;7.110;2022-10-16T11:25:22;35.45;;;5.30;;
41653;SDS011;30790;52.030;7.110;2022-10-16T11:35:44;31.85;;;6.00;;
41653;SDS011;30790;52.030;7.110;2022-10-16T11:41:23;32.20;;;4.72;;
41653;SDS011;30790;52.030;7.110;2022-10-16T11:43:58;31.20;;;4.43;;
41653;SDS011;30790;52.030;7.110;2022-10-16T11:46:34;28.85;;;4.82;;
41653;SDS011;30790;52.030;7.110;2022-10-16T11:49:06;37.00;;;5.40;;
41653;SDS011;30790;52.030;7.110;2022-10-16T11:51:45;28.60;;;5.68;;
41653;SDS011;30790;52.030;7.110;2022-10-16T11:57:17;39.72;;;5.50;;
41653;SDS011;30790;52.030;7.110;2022-10-16T11:59:50;21.20;;;4.78;;
41653;SDS011;30790;52.030;7.110;2022-10-16T12:02:31;28.02;;;4.82;;
41653;SDS011;30790;52.030;7.110;2022-10-16T12:07:36;46.33;;;5.20;;
41653;SDS011;30790;52.030;7.110;2022-10-16T12:10:24;33.55;;;4.47;;
41653;SDS011;30790;52.030;7.110;2022-10-16T12:12:51;36.53;;;5.90;;
41653;SDS011;30790;52.030;7.110;2022-10-16T12:15:21;28.00;;;4.75;;
41653;SDS011;30790;52.030;7.110;2022-10-16T12:17:49;37.63;;;4.90;;
41653;SDS011;30790;52.030;7.110;2022-10-16T12:22:49;21.60;;;4.40;;
41653;SDS011;30790;52.030;7.110;2022-10-16T12:25:37;42.80;;;5.25;;
41653;SDS011;30790;52.030;7.110;2022-10-16T12:30:39;40.25;;;5.78;;
41653;SDS011;30790;52.030;7.110;2022-10-16T12:33:15;32.38;;;5.47;;
41653;SDS011;30790;52.030;7.110;2022-10-16T12:35:49;30.58;;;5.40;;
41653;SDS011;30790;52.030;7.110;2022-10-16T12:38:19;21.65;;;5.00;;
41653;SDS011;30790;52.030;7.110;2022-10-16T12:41:02;34.53;;;5.55;;
41653;SDS011;30790;52.030;7.110;2022-10-16T12:43:38;32.85;;;5.50;;
41653;SDS011;30790;52.030;7.110;2022-10-16T12:48:36;28.85;;;4.57;;
41653;SDS011;30790;52.030;7.110;2022-10-16T12:51:36;30.77;;;4.85;;
41653;SDS011;30790;52.030;7.110;2022-10-16T12:56:46;29.38;;;4.82;;
41653;SDS011;30790;52.030;7.110;2022-10-16T12:59:37;31.20;;;4.95;;
41653;SDS011;30790;52.030;7.110;2022-10-16T13:05:38;25.75;;;4.85;;
41653;SDS011;30790;52.030;7.110;2022-10-16T13:08:22;29.92;;;4.63;;
41653;SDS011;30790;52.030;7.110;2022-10-16T13:19:22;20.92;;;4.63;;
41653;SDS011;30790;52.030;7.110;2022-10-16T13:22:05;23.25;;;4.10;;
41653;SDS011;30790;52.030;7.110;2022-10-16T13:24:57;39.13;;;5.60;;
41653;SDS011;30790;52.030;7.110;2022-10-16T13:27:35;29.33;;;4.97;;
41653;SDS011;30790;52.030;7.110;2022-10-16T13:30:11;28.27;;;5.25;;
41653;SDS011;30790;52.030;7.110;2022-10-16T13:32:46;26.33;;;4.20;;
41653;SDS011;30790;52.030;7.110;2022-10-16T13:35:21;25.10;;;4.05;;
41653;SDS011;30790;52.030;7.110;2022-10-16T13:37:48;23.83;;;4.65;;
41653;SDS011;30790;52.030;7.110;2022-10-16T13:40:19;27.58;;;4.63;;
41653;SDS011;30790;52.030;7.110;2022-10-16T13:42:49;27.35;;;4.13;;
41653;SDS011;30790;52.030;7.110;2022-10-16T13:45:25;34.78;;;4.10;;
41653;SDS011;30790;52.030;7.110;2022-10-16T13:48:08;20.23;;;4.38;;
41653;SDS011;30790;52.030;7.110;2022-10-16T13:50:37;17.52;;;4.07;;
41653;SDS011;30790;52.030;7.110;2022-10-16T13:53:03;27.90;;;4.00;;
41653;SDS011;30790;52.030;7.110;2022-10-16T13:58:21;20.50;;;4.35;;
41653;SDS011;30790;52.030;7.110;2022-10-16T14:00:54;25.85;;;4.03;;
41653;SDS011;30790;52.030;7.110;2022-10-16T14:03:21;27.95;;;3.88;;
41653;SDS011;30790;52.030;7.110;2022-10-16T14:05:54;18.95;;;3.70;;
41653;SDS011;30790;52.030;7.110;2022-10-16T14:08:23;22.05;;;3.72;;
41653;SDS011;30790;52.030;7.110;2022-10-16T14:10:51;21.70;;;4.15;;
41653;SDS011;30790;52.030;7.110;2022-10-16T14:13:20;22.30;;;3.78;;
41653;SDS011;30790;52.030;7.110;2022-10-16T14:16:08;24.90;;;3.65;;
41653;SDS011;30790;52.030;7.110;2022-10-16T14:18:41;16.90;;;3.35;;
41653;SDS011;30790;52.030;7.110;2022-10-16T14:21:07;20.17;;;4.00;;
41653;SDS011;30790;52.030;7.110;2022-10-16T14:23:38;13.52;;;2.83;;
41653;SDS011;30790;52.030;7.110;2022-10-16T14:28:35;30.60;;;3.67;;
41653;SDS011;30790;52.030;7.110;2022-10-16T14:31:02;24.60;;;3.50;;
41653;SDS011;30790;52.030;7.110;2022-10-16T14:33:48;23.77;;;4.50;;
41653;SDS011;30790;52.030;7.110;2022-10-16T14:36:14;35.65;;;4.15;;
41653;SDS011;30790;52.030;7.110;2022-10-16T14:38:48;27.25;;;4.10;;
41653;SDS011;30790;52.030;7.110;2022-10-16T14:41:22;34.08;;;5.78;;
41653;SDS011;30790;52.030;7.110;2022-10-16T14:43:51;40.63;;;4.97;;
41653;SDS011;30790;52.030;7.110;2022-10-16T14:46:20;20.92;;;3.55;;
41653;SDS011;30790;52.030;7.110;2022-10-16T14:48:51;25.60;;;4.15;;
41653;SDS011;30790;52.030;7.110;2022-10-16T14:51:19;32.80;;;5.22;;
41653;SDS011;30790;52.030;7.110;2022-10-16T14:53:45;39.40;;;5.25;;
41653;SDS011;30790;52.030;7.110;2022-10-16T14:56:16;40.00;;;4.80;;
41653;SDS011;30790;52.030;7.110;2022-10-16T14:58:44;45.22;;;5.70;;
41653;SDS011;30790;52.030;7.110;2022-10-16T15:01:09;49.30;;;4.90;;
41653;SDS011;30790;52.030;7.110;2022-10-16T15:03:36;34.25;;;5.05;;
41653;SDS011;30790;52.030;7.110;2022-10-16T15:06:02;34.72;;;5.40;;
41653;SDS011;30790;52.030;7.110;2022-10-16T15:08:27;36.03;;;5.55;;
41653;SDS011;30790;52.030;7.110;2022-10-16T15:10:52;53.57;;;6.53;;
41653;SDS011;30790;52.030;7.110;2022-10-16T15:13:17;45.50;;;5.57;;
41653;SDS011;30790;52.030;7.110;2022-10-16T15:15:47;44.63;;;5.93;;
41653;SDS011;30790;52.030;7.110;2022-10-16T15:18:14;39.65;;;5.45;;
41653;SDS011;30790;52.030;7.110;2022-10-16T15:20:45;57.25;;;5.53;;
41653;SDS011;30790;52.030;7.110;2022-10-16T15:23:16;63.40;;;5.90;;
41653;SDS011;30790;52.030;7.110;2022-10-16T15:25:45;48.20;;;7.10;;
41653;SDS011;30790;52.030;7.110;2022-10-16T15:28:12;47.58;;;5.97;;
41653;SDS011;30790;52.030;7.110;2022-10-16T15:30:39;46.90;;;6.07;;
41653;SDS011;30790;52.030;7.110;2022-10-16T15:33:05;40.55;;;6.03;;
41653;SDS011;30790;52.030;7.110;2022-10-16T15:35:35;47.85;;;5.75;;
41653;SDS011;30790;52.030;7.110;2022-10-16T15:38:00;43.47;;;5.43;;
41653;SDS011;30790;52.030;7.110;2022-10-16T15:40:25;69.60;;;7.15;;
41653;SDS011;30790;52.030;7.110;2022-10-16T15:42:50;36.83;;;5.15;;
41653;SDS011;30790;52.030;7.110;2022-10-16T15:45:16;45.50;;;5.23;;
41653;SDS011;30790;52.030;7.110;2022-10-16T15:47:42;37.55;;;5.32;;
41653;SDS011;30790;52.030;7.110;2022-10-16T15:50:11;35.42;;;4.93;;
41653;SDS011;30790;52.030;7.110;2022-10-16T15:52:38;36.20;;;4.70;;
41653;SDS011;30790;52.030;7.110;2022-10-16T15:55:04;36.90;;;5.05;;
41653;SDS011;30790;52.030;7.110;2022-10-16T15:57:35;43.35;;;5.75;;
41653;SDS011;30790;52.030;7.110;2022-10-16T16:00:09;31.98;;;5.30;;
41653;SDS011;30790;52.030;7.110;2022-10-16T16:02:39;43.28;;;6.20;;
41653;SDS011;30790;52.030;7.110;2022-10-16T16:05:06;36.60;;;5.70;;
41653;SDS011;30790;52.030;7.110;2022-10-16T16:07:36;39.63;;;5.72;;
41653;SDS011;30790;52.030;7.110;2022-10-16T16:10:04;59.42;;;6.47;;
41653;SDS011;30790;52.030;7.110;2022-10-16T16:12:31;34.40;;;6.03;;
41653;SDS011;30790;52.030;7.110;2022-10-16T16:14:56;40.20;;;5.63;;
41653;SDS011;30790;52.030;7.110;2022-10-16T16:17:22;49.60;;;5.82;;